sensor_id;sensor_type;location;lat;lon;timestamp;temperature;humidity
4677;DHT22;2352;48.180;11.478;2022-08-02T00:00:42;21.30;92.10
4677;DHT22;2352;48.180;11.478;2022-08-02T00:03:46;21.30;92.30
4677;DHT22;2352;48.180;11.478;2022-08-02T00:06:49;21.20;92.20
4677;DHT22;2352;48.180;11.478;2022-08-02T00:09:52;21.20;92.30
4677;DHT22;2352;48.180;11.478;2022-08-02T00:12:55;21.20;92.20
4677;DHT22;2352;48.180;11.478;2022-08-02T00:15:58;21.20;92.20
4677;DHT22;2352;48.180;11.478;2022-08-02T00:19:02;21.20;92.50
4677;DHT22;2352;48.180;11.478;2022-08-02T00:22:06;21.10;92.40
4677;DHT22;2352;48.180;11.478;2022-08-02T00:25:10;21.00;92.20
4677;DHT22;2352;48.180;11.478;2022-08-02T00:28:12;21.00;92.20
4677;DHT22;2352;48.180;11.478;2022-08-02T00:31:16;21.10;92.30
4677;DHT22;2352;48.180;11.478;2022-08-02T00:34:20;21.10;92.50
4677;DHT22;2352;48.180;11.478;2022-08-02T00:37:31;21.00;92.70
4677;DHT22;2352;48.180;11.478;2022-08-02T00:40:34;20.90;92.90
4677;DHT22;2352;48.180;11.478;2022-08-02T00:43:37;20.80;93.10
4677;DHT22;2352;48.180;11.478;2022-08-02T00:46:41;20.90;93.20
4677;DHT22;2352;48.180;11.478;2022-08-02T00:49:45;20.90;92.90
4677;DHT22;2352;48.180;11.478;2022-08-02T00:52:48;20.80;93.50
4677;DHT22;2352;48.180;11.478;2022-08-02T00:55:51;20.80;93.10
4677;DHT22;2352;48.180;11.478;2022-08-02T00:58:53;20.80;93.00
4677;DHT22;2352;48.180;11.478;2022-08-02T01:01:56;20.90;93.30
4677;DHT22;2352;48.180;11.478;2022-08-02T01:05:01;21.00;93.10
4677;DHT22;2352;48.180;11.478;2022-08-02T01:08:04;21.00;92.70
4677;DHT22;2352;48.180;11.478;2022-08-02T01:11:07;20.90;92.90
4677;DHT22;2352;48.180;11.478;2022-08-02T01:14:12;20.80;92.90
4677;DHT22;2352;48.180;11.478;2022-08-02T01:17:19;20.90;93.60
4677;DHT22;2352;48.180;11.478;2022-08-02T01:20:48;21.00;93.40
4677;DHT22;2352;48.180;11.478;2022-08-02T01:24:07;21.00;92.60
4677;DHT22;2352;48.180;11.478;2022-08-02T01:27:28;21.10;92.60
4677;DHT22;2352;48.180;11.478;2022-08-02T01:30:37;21.10;92.90
4677;DHT22;2352;48.180;11.478;2022-08-02T01:33:46;21.10;92.80
4677;DHT22;2352;48.180;11.478;2022-08-02T01:36:54;21.10;92.90
4677;DHT22;2352;48.180;11.478;2022-08-02T01:40:02;21.10;92.80
4677;DHT22;2352;48.180;11.478;2022-08-02T01:43:07;21.10;92.60
4677;DHT22;2352;48.180;11.478;2022-08-02T01:46:15;21.20;92.90
4677;DHT22;2352;48.180;11.478;2022-08-02T01:49:21;21.30;93.00
4677;DHT22;2352;48.180;11.478;2022-08-02T01:52:28;21.30;92.50
4677;DHT22;2352;48.180;11.478;2022-08-02T01:55:36;21.30;92.30
4677;DHT22;2352;48.180;11.478;2022-08-02T01:58:59;21.20;92.30
4677;DHT22;2352;48.180;11.478;2022-08-02T02:02:06;21.30;92.90
4677;DHT22;2352;48.180;11.478;2022-08-02T02:05:11;21.30;92.70
4677;DHT22;2352;48.180;11.478;2022-08-02T02:08:17;21.20;92.60
4677;DHT22;2352;48.180;11.478;2022-08-02T02:11:28;21.10;92.40
4677;DHT22;2352;48.180;11.478;2022-08-02T02:14:52;21.10;92.50
4677;DHT22;2352;48.180;11.478;2022-08-02T02:17:59;21.10;92.50
4677;DHT22;2352;48.180;11.478;2022-08-02T02:21:14;21.00;92.50
4677;DHT22;2352;48.180;11.478;2022-08-02T02:24:17;21.00;92.70
4677;DHT22;2352;48.180;11.478;2022-08-02T02:27:20;21.00;92.60
4677;DHT22;2352;48.180;11.478;2022-08-02T02:30:26;21.00;93.10
4677;DHT22;2352;48.180;11.478;2022-08-02T02:33:32;21.00;92.90
4677;DHT22;2352;48.180;11.478;2022-08-02T02:36:39;21.00;93.00
4677;DHT22;2352;48.180;11.478;2022-08-02T02:39:43;21.00;93.30
4677;DHT22;2352;48.180;11.478;2022-08-02T02:42:47;20.90;93.30
4677;DHT22;2352;48.180;11.478;2022-08-02T02:45:52;20.90;93.10
4677;DHT22;2352;48.180;11.478;2022-08-02T02:48:57;21.00;93.20
4677;DHT22;2352;48.180;11.478;2022-08-02T02:52:01;21.00;93.20
4677;DHT22;2352;48.180;11.478;2022-08-02T02:55:06;21.00;93.30
4677;DHT22;2352;48.180;11.478;2022-08-02T02:58:09;21.00;93.10
4677;DHT22;2352;48.180;11.478;2022-08-02T03:01:13;21.00;93.00
4677;DHT22;2352;48.180;11.478;2022-08-02T03:04:54;20.90;92.60
4677;DHT22;2352;48.180;11.478;2022-08-02T03:07:58;20.90;93.00
4677;DHT22;2352;48.180;11.478;2022-08-02T03:11:01;20.90;93.40
4677;DHT22;2352;48.180;11.478;2022-08-02T03:14:08;21.00;93.10
4677;DHT22;2352;48.180;11.478;2022-08-02T03:17:11;21.00;93.00
4677;DHT22;2352;48.180;11.478;2022-08-02T03:20:18;21.10;93.00
4677;DHT22;2352;48.180;11.478;2022-08-02T03:23:23;21.00;92.80
4677;DHT22;2352;48.180;11.478;2022-08-02T03:26:26;21.00;92.80
4677;DHT22;2352;48.180;11.478;2022-08-02T03:29:28;21.00;92.80
4677;DHT22;2352;48.180;11.478;2022-08-02T03:32:35;21.00;93.00
4677;DHT22;2352;48.180;11.478;2022-08-02T03:35:41;21.00;93.10
4677;DHT22;2352;48.180;11.478;2022-08-02T03:38:46;21.00;93.10
4677;DHT22;2352;48.180;11.478;2022-08-02T03:41:49;20.90;92.80
4677;DHT22;2352;48.180;11.478;2022-08-02T03:44:53;20.90;93.00
4677;DHT22;2352;48.180;11.478;2022-08-02T03:47:57;20.90;93.20
4677;DHT22;2352;48.180;11.478;2022-08-02T03:51:01;20.90;93.20
4677;DHT22;2352;48.180;11.478;2022-08-02T03:54:05;20.90;93.20
4677;DHT22;2352;48.180;11.478;2022-08-02T03:57:09;20.80;93.30
4677;DHT22;2352;48.180;11.478;2022-08-02T04:00:17;20.70;93.30
4677;DHT22;2352;48.180;11.478;2022-08-02T04:03:20;20.60;93.40
4677;DHT22;2352;48.180;11.478;2022-08-02T04:06:24;20.60;93.50
4677;DHT22;2352;48.180;11.478;2022-08-02T04:09:29;20.60;93.80
4677;DHT22;2352;48.180;11.478;2022-08-02T04:12:32;20.50;93.70
4677;DHT22;2352;48.180;11.478;2022-08-02T04:15:35;20.50;94.00
4677;DHT22;2352;48.180;11.478;2022-08-02T04:18:42;20.50;93.80
4677;DHT22;2352;48.180;11.478;2022-08-02T04:21:50;20.60;93.80
4677;DHT22;2352;48.180;11.478;2022-08-02T04:24:57;20.60;93.80
4677;DHT22;2352;48.180;11.478;2022-08-02T04:28:02;20.60;93.70
4677;DHT22;2352;48.180;11.478;2022-08-02T04:31:19;20.60;93.70
4677;DHT22;2352;48.180;11.478;2022-08-02T04:34:22;20.60;93.90
4677;DHT22;2352;48.180;11.478;2022-08-02T04:37:26;20.60;93.90
4677;DHT22;2352;48.180;11.478;2022-08-02T04:40:29;20.60;94.20
4677;DHT22;2352;48.180;11.478;2022-08-02T04:43:32;20.60;94.40
4677;DHT22;2352;48.180;11.478;2022-08-02T04:46:36;20.50;94.70
4677;DHT22;2352;48.180;11.478;2022-08-02T04:49:39;20.60;94.60
4677;DHT22;2352;48.180;11.478;2022-08-02T04:52:43;20.50;94.40
4677;DHT22;2352;48.180;11.478;2022-08-02T04:55:46;20.60;94.50
4677;DHT22;2352;48.180;11.478;2022-08-02T04:58:49;20.60;94.40
4677;DHT22;2352;48.180;11.478;2022-08-02T05:01:52;20.70;94.50
4677;DHT22;2352;48.180;11.478;2022-08-02T05:04:55;20.70;94.60
4677;DHT22;2352;48.180;11.478;2022-08-02T05:07:59;20.80;94.40
4677;DHT22;2352;48.180;11.478;2022-08-02T05:11:02;20.80;94.30
4677;DHT22;2352;48.180;11.478;2022-08-02T05:14:05;20.70;94.20
4677;DHT22;2352;48.180;11.478;2022-08-02T05:17:08;20.80;94.40
4677;DHT22;2352;48.180;11.478;2022-08-02T05:20:12;20.80;94.20
4677;DHT22;2352;48.180;11.478;2022-08-02T05:23:16;20.80;94.20
4677;DHT22;2352;48.180;11.478;2022-08-02T05:26:19;20.90;94.40
4677;DHT22;2352;48.180;11.478;2022-08-02T05:29:22;20.80;93.70
4677;DHT22;2352;48.180;11.478;2022-08-02T05:32:25;20.90;93.60
4677;DHT22;2352;48.180;11.478;2022-08-02T05:35:28;21.00;93.80
4677;DHT22;2352;48.180;11.478;2022-08-02T05:38:32;21.00;93.80
4677;DHT22;2352;48.180;11.478;2022-08-02T05:41:38;20.90;94.40
4677;DHT22;2352;48.180;11.478;2022-08-02T05:44:40;20.90;94.20
4677;DHT22;2352;48.180;11.478;2022-08-02T05:47:43;20.80;94.00
4677;DHT22;2352;48.180;11.478;2022-08-02T05:50:48;20.80;94.60
4677;DHT22;2352;48.180;11.478;2022-08-02T05:53:58;20.70;94.60
4677;DHT22;2352;48.180;11.478;2022-08-02T05:57:06;20.70;95.00
4677;DHT22;2352;48.180;11.478;2022-08-02T06:00:11;20.80;94.20
4677;DHT22;2352;48.180;11.478;2022-08-02T06:03:21;20.70;94.60
4677;DHT22;2352;48.180;11.478;2022-08-02T06:06:26;20.70;94.30
4677;DHT22;2352;48.180;11.478;2022-08-02T06:09:32;20.70;93.80
4677;DHT22;2352;48.180;11.478;2022-08-02T06:12:40;20.70;93.90
4677;DHT22;2352;48.180;11.478;2022-08-02T06:15:50;20.80;94.00
4677;DHT22;2352;48.180;11.478;2022-08-02T06:18:55;20.80;94.00
4677;DHT22;2352;48.180;11.478;2022-08-02T06:21:59;20.90;94.50
4677;DHT22;2352;48.180;11.478;2022-08-02T06:25:39;20.90;93.90
4677;DHT22;2352;48.180;11.478;2022-08-02T06:28:53;20.90;94.00
4677;DHT22;2352;48.180;11.478;2022-08-02T06:31:56;21.00;94.00
4677;DHT22;2352;48.180;11.478;2022-08-02T06:35:00;20.70;94.30
4677;DHT22;2352;48.180;11.478;2022-08-02T06:38:03;20.70;93.90
4677;DHT22;2352;48.180;11.478;2022-08-02T06:41:12;20.60;94.30
4677;DHT22;2352;48.180;11.478;2022-08-02T06:44:15;20.80;95.00
4677;DHT22;2352;48.180;11.478;2022-08-02T06:47:38;20.90;94.00
4677;DHT22;2352;48.180;11.478;2022-08-02T06:50:41;21.00;93.90
4677;DHT22;2352;48.180;11.478;2022-08-02T06:53:45;21.10;93.60
4677;DHT22;2352;48.180;11.478;2022-08-02T06:56:49;21.10;93.10
4677;DHT22;2352;48.180;11.478;2022-08-02T06:59:52;21.20;93.60
4677;DHT22;2352;48.180;11.478;2022-08-02T07:02:56;21.30;94.10
4677;DHT22;2352;48.180;11.478;2022-08-02T07:05:59;21.50;94.20
4677;DHT22;2352;48.180;11.478;2022-08-02T07:09:02;21.50;92.90
4677;DHT22;2352;48.180;11.478;2022-08-02T07:12:23;21.60;93.40
4677;DHT22;2352;48.180;11.478;2022-08-02T07:15:26;21.70;93.10
4677;DHT22;2352;48.180;11.478;2022-08-02T07:18:29;21.80;93.10
4677;DHT22;2352;48.180;11.478;2022-08-02T07:21:32;21.80;92.90
4677;DHT22;2352;48.180;11.478;2022-08-02T07:24:57;21.80;92.60
4677;DHT22;2352;48.180;11.478;2022-08-02T07:28:01;21.80;92.10
4677;DHT22;2352;48.180;11.478;2022-08-02T07:31:04;21.60;93.00
4677;DHT22;2352;48.180;11.478;2022-08-02T07:34:07;21.80;92.10
4677;DHT22;2352;48.180;11.478;2022-08-02T07:37:10;21.80;92.20
4677;DHT22;2352;48.180;11.478;2022-08-02T07:40:34;22.00;92.40
4677;DHT22;2352;48.180;11.478;2022-08-02T07:43:38;22.20;92.00
4677;DHT22;2352;48.180;11.478;2022-08-02T07:46:41;22.20;91.40
4677;DHT22;2352;48.180;11.478;2022-08-02T07:49:45;22.20;92.00
4677;DHT22;2352;48.180;11.478;2022-08-02T07:52:48;22.30;91.30
4677;DHT22;2352;48.180;11.478;2022-08-02T07:55:58;22.20;91.60
4677;DHT22;2352;48.180;11.478;2022-08-02T07:59:02;22.30;91.30
4677;DHT22;2352;48.180;11.478;2022-08-02T08:02:05;22.30;90.50
4677;DHT22;2352;48.180;11.478;2022-08-02T08:05:09;22.40;90.20
4677;DHT22;2352;48.180;11.478;2022-08-02T08:08:12;22.50;90.60
4677;DHT22;2352;48.180;11.478;2022-08-02T08:11:18;22.60;90.60
4677;DHT22;2352;48.180;11.478;2022-08-02T08:14:22;22.70;91.20
4677;DHT22;2352;48.180;11.478;2022-08-02T08:17:25;22.90;90.30
4677;DHT22;2352;48.180;11.478;2022-08-02T08:20:28;23.00;89.60
4677;DHT22;2352;48.180;11.478;2022-08-02T08:23:31;23.10;88.90
4677;DHT22;2352;48.180;11.478;2022-08-02T08:26:34;23.10;87.10
4677;DHT22;2352;48.180;11.478;2022-08-02T08:29:38;23.00;88.50
4677;DHT22;2352;48.180;11.478;2022-08-02T08:32:41;23.20;88.20
4677;DHT22;2352;48.180;11.478;2022-08-02T08:35:44;23.30;88.00
4677;DHT22;2352;48.180;11.478;2022-08-02T08:38:47;23.30;87.90
4677;DHT22;2352;48.180;11.478;2022-08-02T08:41:50;23.50;86.60
4677;DHT22;2352;48.180;11.478;2022-08-02T08:44:55;23.60;86.50
4677;DHT22;2352;48.180;11.478;2022-08-02T08:48:05;23.80;88.00
4677;DHT22;2352;48.180;11.478;2022-08-02T08:51:10;24.00;86.30
4677;DHT22;2352;48.180;11.478;2022-08-02T08:54:17;24.00;82.30
4677;DHT22;2352;48.180;11.478;2022-08-02T08:57:20;24.00;82.80
4677;DHT22;2352;48.180;11.478;2022-08-02T09:00:25;24.00;85.10
4677;DHT22;2352;48.180;11.478;2022-08-02T09:03:28;24.00;82.30
4677;DHT22;2352;48.180;11.478;2022-08-02T09:06:34;24.10;82.20
4677;DHT22;2352;48.180;11.478;2022-08-02T09:09:37;24.10;80.00
4677;DHT22;2352;48.180;11.478;2022-08-02T09:12:40;24.30;81.50
4677;DHT22;2352;48.180;11.478;2022-08-02T09:15:53;24.40;81.30
4677;DHT22;2352;48.180;11.478;2022-08-02T09:18:57;24.50;80.80
4677;DHT22;2352;48.180;11.478;2022-08-02T09:22:04;24.60;81.60
4677;DHT22;2352;48.180;11.478;2022-08-02T09:25:14;24.60;81.40
4677;DHT22;2352;48.180;11.478;2022-08-02T09:28:17;24.40;79.80
4677;DHT22;2352;48.180;11.478;2022-08-02T09:31:22;24.50;80.80
4677;DHT22;2352;48.180;11.478;2022-08-02T09:34:44;24.30;77.30
4677;DHT22;2352;48.180;11.478;2022-08-02T09:37:47;24.30;80.20
4677;DHT22;2352;48.180;11.478;2022-08-02T09:40:50;24.60;80.50
4677;DHT22;2352;48.180;11.478;2022-08-02T09:43:55;24.80;81.20
4677;DHT22;2352;48.180;11.478;2022-08-02T09:47:14;25.00;79.70
4677;DHT22;2352;48.180;11.478;2022-08-02T09:50:18;25.20;76.50
4677;DHT22;2352;48.180;11.478;2022-08-02T09:53:22;25.10;77.10
4677;DHT22;2352;48.180;11.478;2022-08-02T09:56:26;25.20;76.70
4677;DHT22;2352;48.180;11.478;2022-08-02T09:59:36;25.20;77.50
4677;DHT22;2352;48.180;11.478;2022-08-02T10:03:09;25.40;80.10
4677;DHT22;2352;48.180;11.478;2022-08-02T10:06:23;25.70;76.90
4677;DHT22;2352;48.180;11.478;2022-08-02T10:09:27;25.80;77.00
4677;DHT22;2352;48.180;11.478;2022-08-02T10:12:30;25.90;75.00
4677;DHT22;2352;48.180;11.478;2022-08-02T10:15:33;25.90;75.10
4677;DHT22;2352;48.180;11.478;2022-08-02T10:18:38;26.10;76.50
4677;DHT22;2352;48.180;11.478;2022-08-02T10:21:44;26.10;75.70
4677;DHT22;2352;48.180;11.478;2022-08-02T10:24:48;26.00;73.40
4677;DHT22;2352;48.180;11.478;2022-08-02T10:27:52;26.00;71.20
4677;DHT22;2352;48.180;11.478;2022-08-02T10:31:06;25.70;71.50
4677;DHT22;2352;48.180;11.478;2022-08-02T10:34:13;26.00;74.70
4677;DHT22;2352;48.180;11.478;2022-08-02T10:37:18;26.40;73.10
4677;DHT22;2352;48.180;11.478;2022-08-02T10:40:22;26.60;70.90
4677;DHT22;2352;48.180;11.478;2022-08-02T10:43:46;26.70;72.00
4677;DHT22;2352;48.180;11.478;2022-08-02T10:46:49;26.70;71.70
4677;DHT22;2352;48.180;11.478;2022-08-02T10:49:55;26.90;71.10
4677;DHT22;2352;48.180;11.478;2022-08-02T10:53:20;27.00;66.40
4677;DHT22;2352;48.180;11.478;2022-08-02T10:56:44;27.10;67.60
4677;DHT22;2352;48.180;11.478;2022-08-02T10:59:48;27.20;68.30
4677;DHT22;2352;48.180;11.478;2022-08-02T11:02:51;27.40;68.00
4677;DHT22;2352;48.180;11.478;2022-08-02T11:06:01;27.40;67.90
4677;DHT22;2352;48.180;11.478;2022-08-02T11:09:35;27.50;67.90
4677;DHT22;2352;48.180;11.478;2022-08-02T11:12:57;27.60;70.00
4677;DHT22;2352;48.180;11.478;2022-08-02T11:16:02;27.90;67.30
4677;DHT22;2352;48.180;11.478;2022-08-02T11:19:12;28.00;66.90
4677;DHT22;2352;48.180;11.478;2022-08-02T11:22:16;28.30;66.80
4677;DHT22;2352;48.180;11.478;2022-08-02T11:25:32;28.40;61.50
4677;DHT22;2352;48.180;11.478;2022-08-02T11:28:56;28.30;61.80
4677;DHT22;2352;48.180;11.478;2022-08-02T11:32:00;28.50;63.90
4677;DHT22;2352;48.180;11.478;2022-08-02T11:35:03;28.50;63.20
4677;DHT22;2352;48.180;11.478;2022-08-02T11:38:18;28.40;63.90
4677;DHT22;2352;48.180;11.478;2022-08-02T11:41:22;28.30;65.50
4677;DHT22;2352;48.180;11.478;2022-08-02T11:44:45;28.40;64.70
4677;DHT22;2352;48.180;11.478;2022-08-02T11:47:51;28.70;63.70
4677;DHT22;2352;48.180;11.478;2022-08-02T11:51:05;28.90;63.70
4677;DHT22;2352;48.180;11.478;2022-08-02T11:54:10;29.10;62.60
4677;DHT22;2352;48.180;11.478;2022-08-02T11:57:15;29.00;57.70
4677;DHT22;2352;48.180;11.478;2022-08-02T12:00:21;28.80;59.50
4677;DHT22;2352;48.180;11.478;2022-08-02T12:03:34;28.80;60.40
4677;DHT22;2352;48.180;11.478;2022-08-02T12:06:37;28.90;60.70
4677;DHT22;2352;48.180;11.478;2022-08-02T12:09:41;28.90;61.20
4677;DHT22;2352;48.180;11.478;2022-08-02T12:12:48;29.00;60.10
4677;DHT22;2352;48.180;11.478;2022-08-02T12:15:52;29.00;58.70
4677;DHT22;2352;48.180;11.478;2022-08-02T12:19:15;29.20;59.80
4677;DHT22;2352;48.180;11.478;2022-08-02T12:22:23;29.20;57.10
4677;DHT22;2352;48.180;11.478;2022-08-02T12:25:29;29.30;56.10
4677;DHT22;2352;48.180;11.478;2022-08-02T12:28:37;29.30;58.00
4677;DHT22;2352;48.180;11.478;2022-08-02T12:31:42;29.50;56.30
4677;DHT22;2352;48.180;11.478;2022-08-02T12:35:04;29.50;56.40
4677;DHT22;2352;48.180;11.478;2022-08-02T12:38:08;29.70;55.90
4677;DHT22;2352;48.180;11.478;2022-08-02T12:41:13;29.90;56.70
4677;DHT22;2352;48.180;11.478;2022-08-02T12:44:33;30.10;56.70
4677;DHT22;2352;48.180;11.478;2022-08-02T12:47:43;30.40;57.00
4677;DHT22;2352;48.180;11.478;2022-08-02T12:50:47;30.70;57.10
4677;DHT22;2352;48.180;11.478;2022-08-02T12:53:51;31.00;54.10
4677;DHT22;2352;48.180;11.478;2022-08-02T12:57:10;30.90;51.00
4677;DHT22;2352;48.180;11.478;2022-08-02T13:00:22;30.60;52.50
4677;DHT22;2352;48.180;11.478;2022-08-02T13:03:25;30.80;51.80
4677;DHT22;2352;48.180;11.478;2022-08-02T13:06:48;30.80;52.30
4677;DHT22;2352;48.180;11.478;2022-08-02T13:09:50;30.70;49.60
4677;DHT22;2352;48.180;11.478;2022-08-02T13:13:05;30.80;50.30
4677;DHT22;2352;48.180;11.478;2022-08-02T13:16:09;31.00;50.10
4677;DHT22;2352;48.180;11.478;2022-08-02T13:19:12;31.30;50.40
4677;DHT22;2352;48.180;11.478;2022-08-02T13:22:16;31.40;50.30
4677;DHT22;2352;48.180;11.478;2022-08-02T13:25:20;31.40;51.60
4677;DHT22;2352;48.180;11.478;2022-08-02T13:28:25;31.40;50.70
4677;DHT22;2352;48.180;11.478;2022-08-02T13:31:28;31.50;50.60
4677;DHT22;2352;48.180;11.478;2022-08-02T13:34:37;31.60;51.20
4677;DHT22;2352;48.180;11.478;2022-08-02T13:37:41;31.70;50.70
4677;DHT22;2352;48.180;11.478;2022-08-02T13:40:45;31.80;50.80
4677;DHT22;2352;48.180;11.478;2022-08-02T13:44:07;32.00;49.70
4677;DHT22;2352;48.180;11.478;2022-08-02T13:47:11;31.90;49.70
4677;DHT22;2352;48.180;11.478;2022-08-02T13:50:27;32.00;49.80
4677;DHT22;2352;48.180;11.478;2022-08-02T13:53:30;31.70;48.40
4677;DHT22;2352;48.180;11.478;2022-08-02T13:56:33;31.60;46.50
4677;DHT22;2352;48.180;11.478;2022-08-02T13:59:39;31.60;46.00
4677;DHT22;2352;48.180;11.478;2022-08-02T14:02:59;31.60;47.20
4677;DHT22;2352;48.180;11.478;2022-08-02T14:06:02;31.80;47.60
4677;DHT22;2352;48.180;11.478;2022-08-02T14:09:07;32.00;46.30
4677;DHT22;2352;48.180;11.478;2022-08-02T14:12:16;32.10;46.20
4677;DHT22;2352;48.180;11.478;2022-08-02T14:15:20;32.00;46.00
4677;DHT22;2352;48.180;11.478;2022-08-02T14:18:27;32.10;45.50
4677;DHT22;2352;48.180;11.478;2022-08-02T14:21:29;32.10;46.70
4677;DHT22;2352;48.180;11.478;2022-08-02T14:24:47;32.10;47.30
4677;DHT22;2352;48.180;11.478;2022-08-02T14:27:50;32.30;46.50
4677;DHT22;2352;48.180;11.478;2022-08-02T14:30:55;32.30;45.80
4677;DHT22;2352;48.180;11.478;2022-08-02T14:33:57;32.20;46.30
4677;DHT22;2352;48.180;11.478;2022-08-02T14:37:00;32.20;44.70
4677;DHT22;2352;48.180;11.478;2022-08-02T14:40:04;32.30;46.80
4677;DHT22;2352;48.180;11.478;2022-08-02T14:43:27;32.20;44.10
4677;DHT22;2352;48.180;11.478;2022-08-02T14:46:49;32.10;46.80
4677;DHT22;2352;48.180;11.478;2022-08-02T14:49:53;32.30;46.80
4677;DHT22;2352;48.180;11.478;2022-08-02T14:52:56;32.00;45.00
4677;DHT22;2352;48.180;11.478;2022-08-02T14:55:59;32.00;44.60
4677;DHT22;2352;48.180;11.478;2022-08-02T14:59:03;32.00;46.50
4677;DHT22;2352;48.180;11.478;2022-08-02T15:02:07;32.10;45.00
4677;DHT22;2352;48.180;11.478;2022-08-02T15:05:14;32.10;44.40
4677;DHT22;2352;48.180;11.478;2022-08-02T15:08:17;32.10;44.40
4677;DHT22;2352;48.180;11.478;2022-08-02T15:11:20;32.00;42.90
4677;DHT22;2352;48.180;11.478;2022-08-02T15:14:23;31.80;43.60
4677;DHT22;2352;48.180;11.478;2022-08-02T15:17:28;31.60;44.00
4677;DHT22;2352;48.180;11.478;2022-08-02T15:20:32;31.40;44.70
4677;DHT22;2352;48.180;11.478;2022-08-02T15:23:35;31.50;46.10
4677;DHT22;2352;48.180;11.478;2022-08-02T15:26:39;31.60;45.10
4677;DHT22;2352;48.180;11.478;2022-08-02T15:29:44;31.60;44.60
4677;DHT22;2352;48.180;11.478;2022-08-02T15:32:48;31.60;44.00
4677;DHT22;2352;48.180;11.478;2022-08-02T15:35:54;31.50;44.40
4677;DHT22;2352;48.180;11.478;2022-08-02T15:38:57;31.50;44.50
4677;DHT22;2352;48.180;11.478;2022-08-02T15:42:00;31.40;45.60
4677;DHT22;2352;48.180;11.478;2022-08-02T15:45:03;31.40;45.20
4677;DHT22;2352;48.180;11.478;2022-08-02T15:48:08;31.30;46.10
4677;DHT22;2352;48.180;11.478;2022-08-02T15:51:11;31.30;44.60
4677;DHT22;2352;48.180;11.478;2022-08-02T15:54:13;31.00;43.60
4677;DHT22;2352;48.180;11.478;2022-08-02T15:57:16;30.80;42.70
4677;DHT22;2352;48.180;11.478;2022-08-02T16:00:19;30.70;43.00
4677;DHT22;2352;48.180;11.478;2022-08-02T16:03:24;30.60;43.30
4677;DHT22;2352;48.180;11.478;2022-08-02T16:06:27;30.60;43.80
4677;DHT22;2352;48.180;11.478;2022-08-02T16:09:30;30.60;42.50
4677;DHT22;2352;48.180;11.478;2022-08-02T16:12:33;30.60;45.70
4677;DHT22;2352;48.180;11.478;2022-08-02T16:15:35;30.60;45.50
4677;DHT22;2352;48.180;11.478;2022-08-02T16:18:40;30.50;44.70
4677;DHT22;2352;48.180;11.478;2022-08-02T16:21:43;30.40;43.60
4677;DHT22;2352;48.180;11.478;2022-08-02T16:24:47;30.40;42.90
4677;DHT22;2352;48.180;11.478;2022-08-02T16:27:51;30.40;42.80
4677;DHT22;2352;48.180;11.478;2022-08-02T16:31:08;30.40;43.10
4677;DHT22;2352;48.180;11.478;2022-08-02T16:34:13;30.40;44.20
4677;DHT22;2352;48.180;11.478;2022-08-02T16:37:16;30.30;43.70
4677;DHT22;2352;48.180;11.478;2022-08-02T16:40:19;30.30;43.90
4677;DHT22;2352;48.180;11.478;2022-08-02T16:43:22;30.20;43.70
4677;DHT22;2352;48.180;11.478;2022-08-02T16:46:28;30.20;43.00
4677;DHT22;2352;48.180;11.478;2022-08-02T16:49:32;30.00;42.70
4677;DHT22;2352;48.180;11.478;2022-08-02T16:52:55;30.00;44.40
4677;DHT22;2352;48.180;11.478;2022-08-02T16:56:18;30.00;42.90
4677;DHT22;2352;48.180;11.478;2022-08-02T16:59:23;30.00;44.00
4677;DHT22;2352;48.180;11.478;2022-08-02T17:02:26;30.10;43.90
4677;DHT22;2352;48.180;11.478;2022-08-02T17:05:31;30.10;43.60
4677;DHT22;2352;48.180;11.478;2022-08-02T17:08:56;30.10;45.30
4677;DHT22;2352;48.180;11.478;2022-08-02T17:11:59;30.00;44.50
4677;DHT22;2352;48.180;11.478;2022-08-02T17:15:03;30.00;44.60
4677;DHT22;2352;48.180;11.478;2022-08-02T17:18:26;30.00;42.90
4677;DHT22;2352;48.180;11.478;2022-08-02T17:21:30;29.80;42.90
4677;DHT22;2352;48.180;11.478;2022-08-02T17:24:34;29.80;42.90
4677;DHT22;2352;48.180;11.478;2022-08-02T17:27:39;29.80;44.40
4677;DHT22;2352;48.180;11.478;2022-08-02T17:30:42;29.80;45.20
4677;DHT22;2352;48.180;11.478;2022-08-02T17:33:45;29.70;45.00
4677;DHT22;2352;48.180;11.478;2022-08-02T17:36:50;29.70;45.00
4677;DHT22;2352;48.180;11.478;2022-08-02T17:39:53;29.70;46.30
4677;DHT22;2352;48.180;11.478;2022-08-02T17:42:56;29.60;46.30
4677;DHT22;2352;48.180;11.478;2022-08-02T17:45:58;29.50;46.30
4677;DHT22;2352;48.180;11.478;2022-08-02T17:49:03;29.50;46.80
4677;DHT22;2352;48.180;11.478;2022-08-02T17:52:21;29.50;47.40
4677;DHT22;2352;48.180;11.478;2022-08-02T17:55:44;29.40;48.20
4677;DHT22;2352;48.180;11.478;2022-08-02T17:58:51;29.40;48.30
4677;DHT22;2352;48.180;11.478;2022-08-02T18:01:56;29.30;47.60
4677;DHT22;2352;48.180;11.478;2022-08-02T18:05:04;29.30;49.60
4677;DHT22;2352;48.180;11.478;2022-08-02T18:08:15;29.30;49.20
4677;DHT22;2352;48.180;11.478;2022-08-02T18:11:22;29.30;50.90
4677;DHT22;2352;48.180;11.478;2022-08-02T18:14:45;29.30;50.10
4677;DHT22;2352;48.180;11.478;2022-08-02T18:17:50;29.20;49.10
4677;DHT22;2352;48.180;11.478;2022-08-02T18:20:57;29.10;50.30
4677;DHT22;2352;48.180;11.478;2022-08-02T18:24:22;29.00;51.00
4677;DHT22;2352;48.180;11.478;2022-08-02T18:27:29;29.00;50.70
4677;DHT22;2352;48.180;11.478;2022-08-02T18:30:32;28.90;51.50
4677;DHT22;2352;48.180;11.478;2022-08-02T18:33:36;28.90;52.50
4677;DHT22;2352;48.180;11.478;2022-08-02T18:36:59;28.80;52.80
4677;DHT22;2352;48.180;11.478;2022-08-02T18:40:04;28.70;51.80
4677;DHT22;2352;48.180;11.478;2022-08-02T18:43:07;28.70;51.60
4677;DHT22;2352;48.180;11.478;2022-08-02T18:46:15;28.70;51.10
4677;DHT22;2352;48.180;11.478;2022-08-02T18:49:20;28.60;53.40
4677;DHT22;2352;48.180;11.478;2022-08-02T18:52:24;28.50;52.90
4677;DHT22;2352;48.180;11.478;2022-08-02T18:55:33;28.40;52.60
4677;DHT22;2352;48.180;11.478;2022-08-02T18:58:56;28.40;53.60
4677;DHT22;2352;48.180;11.478;2022-08-02T19:01:59;28.30;53.90
4677;DHT22;2352;48.180;11.478;2022-08-02T19:05:03;28.30;54.50
4677;DHT22;2352;48.180;11.478;2022-08-02T19:08:07;28.20;53.90
4677;DHT22;2352;48.180;11.478;2022-08-02T19:11:13;28.10;54.00
4677;DHT22;2352;48.180;11.478;2022-08-02T19:14:16;28.00;54.70
4677;DHT22;2352;48.180;11.478;2022-08-02T19:17:39;27.90;54.50
4677;DHT22;2352;48.180;11.478;2022-08-02T19:21:03;27.80;54.90
4677;DHT22;2352;48.180;11.478;2022-08-02T19:24:09;27.80;55.20
4677;DHT22;2352;48.180;11.478;2022-08-02T19:27:13;27.60;56.80
4677;DHT22;2352;48.180;11.478;2022-08-02T19:30:26;27.50;57.10
4677;DHT22;2352;48.180;11.478;2022-08-02T19:33:29;27.40;57.10
4677;DHT22;2352;48.180;11.478;2022-08-02T19:36:52;27.40;57.20
4677;DHT22;2352;48.180;11.478;2022-08-02T19:39:55;27.40;56.90
4677;DHT22;2352;48.180;11.478;2022-08-02T19:43:01;27.30;57.00
4677;DHT22;2352;48.180;11.478;2022-08-02T19:46:24;27.30;57.40
4677;DHT22;2352;48.180;11.478;2022-08-02T19:49:27;27.20;57.50
4677;DHT22;2352;48.180;11.478;2022-08-02T19:52:41;27.10;57.60
4677;DHT22;2352;48.180;11.478;2022-08-02T19:55:44;27.00;57.80
4677;DHT22;2352;48.180;11.478;2022-08-02T19:59:05;26.90;57.90